sensor_id;sensor_type;location;lat;lon;timestamp;P1;durP1;ratioP1;P2;durP2;ratioP2
64667;SDS011;51077;42.716;23.344;2023-05-02T00:00:25;5.60;;;3.40;;
64667;SDS011;51077;42.716;23.344;2023-05-02T00:02:50;5.00;;;2.97;;
64667;SDS011;51077;42.716;23.344;2023-05-02T00:05:16;6.80;;;3.33;;
64667;SDS011;51077;42.716;23.344;2023-05-02T00:07:42;7.20;;;3.97;;
64667;SDS011;51077;42.716;23.344;2023-05-02T00:10:07;6.20;;;3.63;;
64667;SDS011;51077;42.716;23.344;2023-05-02T00:12:33;5.43;;;3.28;;
64667;SDS011;51077;42.716;23.344;2023-05-02T00:14:58;5.00;;;3.27;;
64667;SDS011;51077;42.716;23.344;2023-05-02T00:17:25;5.93;;;3.50;;
64667;SDS011;51077;42.716;23.344;2023-05-02T00:19:50;6.93;;;3.50;;
64667;SDS011;51077;42.716;23.344;2023-05-02T00:22:15;6.80;;;3.50;;
64667;SDS011;51077;42.716;23.344;2023-05-02T00:24:41;5.03;;;3.37;;
64667;SDS011;51077;42.716;23.344;2023-05-02T00:27:06;5.90;;;3.60;;
64667;SDS011;51077;42.716;23.344;2023-05-02T00:29:32;5.20;;;3.47;;
64667;SDS011;51077;42.716;23.344;2023-05-02T00:31:57;5.90;;;3.33;;
64667;SDS011;51077;42.716;23.344;2023-05-02T00:34:23;6.10;;;3.70;;
64667;SDS011;51077;42.716;23.344;2023-05-02T00:36:52;5.70;;;3.45;;
64667;SDS011;51077;42.716;23.344;2023-05-02T00:39:18;5.80;;;3.60;;
64667;SDS011;51077;42.716;23.344;2023-05-02T00:41:43;5.80;;;3.60;;
64667;SDS011;51077;42.716;23.344;2023-05-02T00:44:08;5.77;;;2.90;;
64667;SDS011;51077;42.716;23.344;2023-05-02T00:46:34;6.60;;;3.17;;
64667;SDS011;51077;42.716;23.344;2023-05-02T00:49:00;4.70;;;3.30;;
64667;SDS011;51077;42.716;23.344;2023-05-02T00:51:25;5.65;;;3.15;;
64667;SDS011;51077;42.716;23.344;2023-05-02T00:53:51;4.53;;;3.10;;
64667;SDS011;51077;42.716;23.344;2023-05-02T00:56:16;5.30;;;3.40;;
64667;SDS011;51077;42.716;23.344;2023-05-02T00:58:42;4.70;;;2.70;;
64667;SDS011;51077;42.716;23.344;2023-05-02T01:06:21;6.00;;;3.17;;
64667;SDS011;51077;42.716;23.344;2023-05-02T01:11:51;5.28;;;3.58;;
64667;SDS011;51077;42.716;23.344;2023-05-02T01:14:27;5.00;;;2.85;;
64667;SDS011;51077;42.716;23.344;2023-05-02T01:16:55;5.35;;;3.00;;
64667;SDS011;51077;42.716;23.344;2023-05-02T01:19:24;4.90;;;3.25;;
64667;SDS011;51077;42.716;23.344;2023-05-02T01:21:53;4.22;;;3.33;;
64667;SDS011;51077;42.716;23.344;2023-05-02T01:24:24;5.00;;;3.33;;
64667;SDS011;51077;42.716;23.344;2023-05-02T01:29:42;4.78;;;2.88;;
64667;SDS011;51077;42.716;23.344;2023-05-02T01:32:09;4.28;;;3.00;;
64667;SDS011;51077;42.716;23.344;2023-05-02T01:34:37;4.30;;;2.95;;
64667;SDS011;51077;42.716;23.344;2023-05-02T01:37:07;6.82;;;3.22;;
64667;SDS011;51077;42.716;23.344;2023-05-02T01:39:35;5.10;;;3.45;;
64667;SDS011;51077;42.716;23.344;2023-05-02T01:42:04;8.05;;;3.50;;
64667;SDS011;51077;42.716;23.344;2023-05-02T01:44:29;8.47;;;4.07;;
64667;SDS011;51077;42.716;23.344;2023-05-02T01:46:58;4.28;;;3.20;;
64667;SDS011;51077;42.716;23.344;2023-05-02T01:49:26;5.30;;;3.63;;
64667;SDS011;51077;42.716;23.344;2023-05-02T01:51:55;6.35;;;3.33;;
64667;SDS011;51077;42.716;23.344;2023-05-02T01:54:27;9.98;;;4.63;;
64667;SDS011;51077;42.716;23.344;2023-05-02T01:56:54;9.40;;;3.88;;
64667;SDS011;51077;42.716;23.344;2023-05-02T01:59:21;8.20;;;4.05;;
64667;SDS011;51077;42.716;23.344;2023-05-02T02:01:50;6.68;;;3.85;;
64667;SDS011;51077;42.716;23.344;2023-05-02T02:04:16;7.15;;;4.07;;
64667;SDS011;51077;42.716;23.344;2023-05-02T02:06:45;6.70;;;3.88;;
64667;SDS011;51077;42.716;23.344;2023-05-02T02:09:14;5.38;;;3.38;;
64667;SDS011;51077;42.716;23.344;2023-05-02T02:11:45;5.00;;;3.70;;
64667;SDS011;51077;42.716;23.344;2023-05-02T02:14:19;5.35;;;3.45;;
64667;SDS011;51077;42.716;23.344;2023-05-02T02:16:48;5.63;;;3.55;;
64667;SDS011;51077;42.716;23.344;2023-05-02T02:19:17;7.35;;;3.80;;
64667;SDS011;51077;42.716;23.344;2023-05-02T02:21:44;7.32;;;3.80;;
64667;SDS011;51077;42.716;23.344;2023-05-02T02:24:12;5.53;;;3.80;;
64667;SDS011;51077;42.716;23.344;2023-05-02T02:26:39;5.05;;;3.65;;
64667;SDS011;51077;42.716;23.344;2023-05-02T02:29:05;5.50;;;3.72;;
64667;SDS011;51077;42.716;23.344;2023-05-02T02:31:31;5.50;;;3.93;;
64667;SDS011;51077;42.716;23.344;2023-05-02T02:33:59;5.97;;;3.75;;
64667;SDS011;51077;42.716;23.344;2023-05-02T02:45:08;5.05;;;3.70;;
64667;SDS011;51077;42.716;23.344;2023-05-02T02:53:06;7.82;;;3.80;;
64667;SDS011;51077;42.716;23.344;2023-05-02T02:55:44;5.95;;;4.20;;
64667;SDS011;51077;42.716;23.344;2023-05-02T03:01:19;7.80;;;3.72;;
64667;SDS011;51077;42.716;23.344;2023-05-02T03:03:47;6.88;;;4.38;;
64667;SDS011;51077;42.716;23.344;2023-05-02T03:06:13;6.93;;;3.78;;
64667;SDS011;51077;42.716;23.344;2023-05-02T03:08:41;7.03;;;3.90;;
64667;SDS011;51077;42.716;23.344;2023-05-02T03:11:07;5.90;;;3.70;;
64667;SDS011;51077;42.716;23.344;2023-05-02T03:13:33;7.53;;;3.93;;
64667;SDS011;51077;42.716;23.344;2023-05-02T03:18:31;7.78;;;3.78;;
64667;SDS011;51077;42.716;23.344;2023-05-02T03:20:57;6.60;;;3.90;;
64667;SDS011;51077;42.716;23.344;2023-05-02T03:23:22;7.50;;;3.70;;
64667;SDS011;51077;42.716;23.344;2023-05-02T03:25:48;5.47;;;3.67;;
64667;SDS011;51077;42.716;23.344;2023-05-02T03:28:14;7.38;;;3.53;;
64667;SDS011;51077;42.716;23.344;2023-05-02T03:30:39;5.97;;;3.80;;
64667;SDS011;51077;42.716;23.344;2023-05-02T03:33:05;6.93;;;5.20;;
64667;SDS011;51077;42.716;23.344;2023-05-02T03:35:32;7.80;;;5.05;;
64667;SDS011;51077;42.716;23.344;2023-05-02T03:37:58;7.40;;;4.90;;
64667;SDS011;51077;42.716;23.344;2023-05-02T03:40:23;15.33;;;5.27;;
64667;SDS011;51077;42.716;23.344;2023-05-02T03:42:49;7.23;;;5.50;;
64667;SDS011;51077;42.716;23.344;2023-05-02T03:45:14;6.80;;;5.13;;
64667;SDS011;51077;42.716;23.344;2023-05-02T03:47:40;8.10;;;5.70;;
64667;SDS011;51077;42.716;23.344;2023-05-02T03:50:06;8.20;;;5.50;;
64667;SDS011;51077;42.716;23.344;2023-05-02T03:52:32;8.82;;;5.38;;
64667;SDS011;51077;42.716;23.344;2023-05-02T03:54:57;7.28;;;5.30;;
64667;SDS011;51077;42.716;23.344;2023-05-02T03:57:25;7.90;;;5.03;;
64667;SDS011;51077;42.716;23.344;2023-05-02T03:59:50;7.43;;;4.80;;
64667;SDS011;51077;42.716;23.344;2023-05-02T04:02:15;7.50;;;5.10;;
64667;SDS011;51077;42.716;23.344;2023-05-02T04:04:41;7.13;;;4.87;;
64667;SDS011;51077;42.716;23.344;2023-05-02T04:07:07;7.72;;;5.03;;
64667;SDS011;51077;42.716;23.344;2023-05-02T04:09:33;7.35;;;4.85;;
64667;SDS011;51077;42.716;23.344;2023-05-02T04:11:59;5.77;;;4.37;;
64667;SDS011;51077;42.716;23.344;2023-05-02T04:14:25;6.07;;;4.53;;
64667;SDS011;51077;42.716;23.344;2023-05-02T04:16:51;6.07;;;4.30;;
64667;SDS011;51077;42.716;23.344;2023-05-02T04:19:17;6.70;;;4.63;;
64667;SDS011;51077;42.716;23.344;2023-05-02T04:21:43;6.38;;;4.22;;
64667;SDS011;51077;42.716;23.344;2023-05-02T04:24:09;5.85;;;4.20;;
64667;SDS011;51077;42.716;23.344;2023-05-02T04:26:34;6.53;;;3.83;;
64667;SDS011;51077;42.716;23.344;2023-05-02T04:29:00;6.13;;;4.00;;
64667;SDS011;51077;42.716;23.344;2023-05-02T04:31:26;5.78;;;3.85;;
64667;SDS011;51077;42.716;23.344;2023-05-02T04:33:52;9.18;;;3.65;;
64667;SDS011;51077;42.716;23.344;2023-05-02T04:36:17;7.70;;;3.83;;
64667;SDS011;51077;42.716;23.344;2023-05-02T04:38:45;6.75;;;3.58;;
64667;SDS011;51077;42.716;23.344;2023-05-02T04:41:11;6.70;;;3.60;;
64667;SDS011;51077;42.716;23.344;2023-05-02T04:43:36;6.13;;;3.10;;
64667;SDS011;51077;42.716;23.344;2023-05-02T04:46:02;6.83;;;3.63;;
64667;SDS011;51077;42.716;23.344;2023-05-02T04:48:27;7.60;;;3.60;;
64667;SDS011;51077;42.716;23.344;2023-05-02T04:50:53;6.83;;;4.13;;
64667;SDS011;51077;42.716;23.344;2023-05-02T04:53:20;5.70;;;3.23;;
64667;SDS011;51077;42.716;23.344;2023-05-02T04:55:46;6.22;;;2.90;;
64667;SDS011;51077;42.716;23.344;2023-05-02T04:58:12;5.50;;;2.90;;
64667;SDS011;51077;42.716;23.344;2023-05-02T05:00:37;6.07;;;3.20;;
64667;SDS011;51077;42.716;23.344;2023-05-02T05:03:02;4.10;;;2.70;;
64667;SDS011;51077;42.716;23.344;2023-05-02T05:05:28;3.87;;;2.87;;
64667;SDS011;51077;42.716;23.344;2023-05-02T05:07:53;6.07;;;3.23;;
64667;SDS011;51077;42.716;23.344;2023-05-02T05:10:18;5.60;;;3.10;;
64667;SDS011;51077;42.716;23.344;2023-05-02T05:12:44;4.20;;;2.90;;
64667;SDS011;51077;42.716;23.344;2023-05-02T05:15:10;5.00;;;2.60;;
64667;SDS011;51077;42.716;23.344;2023-05-02T05:17:36;5.00;;;2.83;;
64667;SDS011;51077;42.716;23.344;2023-05-02T05:20:01;6.27;;;2.50;;
64667;SDS011;51077;42.716;23.344;2023-05-02T05:22:27;4.80;;;2.60;;
64667;SDS011;51077;42.716;23.344;2023-05-02T05:24:53;5.10;;;2.67;;
64667;SDS011;51077;42.716;23.344;2023-05-02T05:27:19;4.35;;;2.65;;
64667;SDS011;51077;42.716;23.344;2023-05-02T05:29:45;6.38;;;3.03;;
64667;SDS011;51077;42.716;23.344;2023-05-02T05:32:11;3.93;;;2.27;;
64667;SDS011;51077;42.716;23.344;2023-05-02T05:34:36;4.60;;;2.80;;
64667;SDS011;51077;42.716;23.344;2023-05-02T05:37:01;5.00;;;2.70;;
64667;SDS011;51077;42.716;23.344;2023-05-02T05:39:27;7.87;;;2.87;;
64667;SDS011;51077;42.716;23.344;2023-05-02T05:41:52;4.77;;;2.60;;
64667;SDS011;51077;42.716;23.344;2023-05-02T05:44:18;6.30;;;2.93;;
64667;SDS011;51077;42.716;23.344;2023-05-02T05:46:46;3.92;;;2.70;;
64667;SDS011;51077;42.716;23.344;2023-05-02T05:49:11;5.37;;;2.87;;
64667;SDS011;51077;42.716;23.344;2023-05-02T05:51:37;4.27;;;2.60;;
64667;SDS011;51077;42.716;23.344;2023-05-02T05:54:02;3.50;;;2.30;;
64667;SDS011;51077;42.716;23.344;2023-05-02T05:56:28;6.07;;;2.60;;
64667;SDS011;51077;42.716;23.344;2023-05-02T05:58:53;5.90;;;2.53;;
64667;SDS011;51077;42.716;23.344;2023-05-02T06:01:19;5.87;;;2.20;;
64667;SDS011;51077;42.716;23.344;2023-05-02T06:03:44;3.83;;;2.23;;
64667;SDS011;51077;42.716;23.344;2023-05-02T06:06:09;5.53;;;2.80;;
64667;SDS011;51077;42.716;23.344;2023-05-02T06:08:35;4.40;;;2.40;;
64667;SDS011;51077;42.716;23.344;2023-05-02T06:11:00;4.37;;;2.53;;
64667;SDS011;51077;42.716;23.344;2023-05-02T06:13:26;5.33;;;2.33;;
64667;SDS011;51077;42.716;23.344;2023-05-02T06:15:51;4.43;;;2.40;;
64667;SDS011;51077;42.716;23.344;2023-05-02T06:18:16;3.60;;;2.10;;
64667;SDS011;51077;42.716;23.344;2023-05-02T06:20:42;4.37;;;2.40;;
64667;SDS011;51077;42.716;23.344;2023-05-02T06:23:07;4.60;;;2.20;;
64667;SDS011;51077;42.716;23.344;2023-05-02T06:25:35;5.23;;;1.97;;
64667;SDS011;51077;42.716;23.344;2023-05-02T06:28:01;7.55;;;2.75;;
64667;SDS011;51077;42.716;23.344;2023-05-02T06:30:27;4.20;;;2.50;;
64667;SDS011;51077;42.716;23.344;2023-05-02T06:32:52;5.27;;;2.20;;
64667;SDS011;51077;42.716;23.344;2023-05-02T06:35:17;5.23;;;2.40;;
64667;SDS011;51077;42.716;23.344;2023-05-02T06:37:43;3.13;;;1.93;;
64667;SDS011;51077;42.716;23.344;2023-05-02T06:40:08;5.10;;;1.77;;
64667;SDS011;51077;42.716;23.344;2023-05-02T06:42:34;3.77;;;1.97;;
64667;SDS011;51077;42.716;23.344;2023-05-02T06:44:59;4.23;;;2.00;;
64667;SDS011;51077;42.716;23.344;2023-05-02T06:47:25;5.50;;;2.43;;
64667;SDS011;51077;42.716;23.344;2023-05-02T06:49:50;5.10;;;2.30;;
64667;SDS011;51077;42.716;23.344;2023-05-02T06:52:17;3.38;;;2.20;;
64667;SDS011;51077;42.716;23.344;2023-05-02T06:54:42;4.07;;;1.80;;
64667;SDS011;51077;42.716;23.344;2023-05-02T06:57:08;4.77;;;1.87;;
64667;SDS011;51077;42.716;23.344;2023-05-02T06:59:35;3.13;;;1.88;;
64667;SDS011;51077;42.716;23.344;2023-05-02T07:02:00;5.73;;;2.00;;
64667;SDS011;51077;42.716;23.344;2023-05-02T07:04:25;6.37;;;2.53;;
64667;SDS011;51077;42.716;23.344;2023-05-02T07:06:51;6.77;;;2.70;;
64667;SDS011;51077;42.716;23.344;2023-05-02T07:09:16;4.40;;;2.37;;
64667;SDS011;51077;42.716;23.344;2023-05-02T07:11:42;5.97;;;2.20;;
64667;SDS011;51077;42.716;23.344;2023-05-02T07:14:07;5.80;;;2.50;;
64667;SDS011;51077;42.716;23.344;2023-05-02T07:16:33;4.43;;;2.23;;
64667;SDS011;51077;42.716;23.344;2023-05-02T07:18:58;4.53;;;1.87;;
64667;SDS011;51077;42.716;23.344;2023-05-02T07:21:25;3.47;;;2.05;;
64667;SDS011;51077;42.716;23.344;2023-05-02T07:23:51;5.07;;;2.40;;
64667;SDS011;51077;42.716;23.344;2023-05-02T07:26:16;5.30;;;2.70;;
64667;SDS011;51077;42.716;23.344;2023-05-02T07:28:42;8.57;;;2.53;;
64667;SDS011;51077;42.716;23.344;2023-05-02T07:31:08;7.70;;;2.20;;
64667;SDS011;51077;42.716;23.344;2023-05-02T07:33:33;5.67;;;2.37;;
64667;SDS011;51077;42.716;23.344;2023-05-02T07:36:00;4.03;;;2.37;;
64667;SDS011;51077;42.716;23.344;2023-05-02T07:38:26;3.88;;;2.00;;
64667;SDS011;51077;42.716;23.344;2023-05-02T07:40:51;3.47;;;1.92;;
64667;SDS011;51077;42.716;23.344;2023-05-02T07:43:17;4.20;;;2.17;;
64667;SDS011;51077;42.716;23.344;2023-05-02T07:45:42;3.87;;;1.90;;
64667;SDS011;51077;42.716;23.344;2023-05-02T07:48:07;4.00;;;1.80;;
64667;SDS011;51077;42.716;23.344;2023-05-02T07:50:33;3.83;;;2.00;;
64667;SDS011;51077;42.716;23.344;2023-05-02T07:52:58;6.90;;;1.70;;
64667;SDS011;51077;42.716;23.344;2023-05-02T07:55:24;4.37;;;1.90;;
64667;SDS011;51077;42.716;23.344;2023-05-02T07:57:53;4.20;;;1.80;;
64667;SDS011;51077;42.716;23.344;2023-05-02T08:00:18;3.83;;;2.00;;
64667;SDS011;51077;42.716;23.344;2023-05-02T08:02:43;4.03;;;1.90;;
64667;SDS011;51077;42.716;23.344;2023-05-02T08:05:10;4.25;;;1.73;;
64667;SDS011;51077;42.716;23.344;2023-05-02T08:07:35;4.27;;;1.80;;
64667;SDS011;51077;42.716;23.344;2023-05-02T08:10:01;5.47;;;1.80;;
64667;SDS011;51077;42.716;23.344;2023-05-02T08:12:26;3.53;;;1.60;;
64667;SDS011;51077;42.716;23.344;2023-05-02T08:14:52;3.73;;;1.50;;
64667;SDS011;51077;42.716;23.344;2023-05-02T08:17:17;3.13;;;1.50;;
64667;SDS011;51077;42.716;23.344;2023-05-02T08:19:43;3.87;;;1.40;;
64667;SDS011;51077;42.716;23.344;2023-05-02T08:22:08;3.73;;;1.60;;
64667;SDS011;51077;42.716;23.344;2023-05-02T08:24:35;2.95;;;1.77;;
64667;SDS011;51077;42.716;23.344;2023-05-02T08:27:00;6.53;;;1.93;;
64667;SDS011;51077;42.716;23.344;2023-05-02T08:29:27;4.50;;;1.65;;
64667;SDS011;51077;42.716;23.344;2023-05-02T08:31:54;3.33;;;1.50;;
64667;SDS011;51077;42.716;23.344;2023-05-02T08:34:19;3.57;;;1.63;;
64667;SDS011;51077;42.716;23.344;2023-05-02T08:36:45;3.30;;;1.57;;
64667;SDS011;51077;42.716;23.344;2023-05-02T08:39:11;5.15;;;1.80;;
64667;SDS011;51077;42.716;23.344;2023-05-02T08:41:36;3.13;;;1.30;;
64667;SDS011;51077;42.716;23.344;2023-05-02T08:44:02;2.42;;;1.30;;
64667;SDS011;51077;42.716;23.344;2023-05-02T08:46:30;3.15;;;1.73;;
64667;SDS011;51077;42.716;23.344;2023-05-02T08:48:59;5.07;;;1.70;;
64667;SDS011;51077;42.716;23.344;2023-05-02T08:51:26;3.30;;;1.42;;
64667;SDS011;51077;42.716;23.344;2023-05-02T08:53:52;4.30;;;1.98;;
64667;SDS011;51077;42.716;23.344;2023-05-02T08:56:19;4.10;;;1.60;;
64667;SDS011;51077;42.716;23.344;2023-05-02T08:58:45;3.53;;;1.73;;
64667;SDS011;51077;42.716;23.344;2023-05-02T09:01:14;3.27;;;1.70;;
64667;SDS011;51077;42.716;23.344;2023-05-02T09:03:44;4.68;;;1.67;;
64667;SDS011;51077;42.716;23.344;2023-05-02T09:06:12;4.22;;;1.52;;
64667;SDS011;51077;42.716;23.344;2023-05-02T09:08:40;4.30;;;1.63;;
64667;SDS011;51077;42.716;23.344;2023-05-02T09:11:07;2.97;;;1.45;;
64667;SDS011;51077;42.716;23.344;2023-05-02T09:18:40;5.38;;;1.77;;
64667;SDS011;51077;42.716;23.344;2023-05-02T09:21:16;4.50;;;1.75;;
64667;SDS011;51077;42.716;23.344;2023-05-02T09:23:53;2.78;;;1.60;;
64667;SDS011;51077;42.716;23.344;2023-05-02T09:26:29;4.55;;;1.88;;
64667;SDS011;51077;42.716;23.344;2023-05-02T09:28:57;5.32;;;1.92;;
64667;SDS011;51077;42.716;23.344;2023-05-02T09:31:24;3.97;;;1.50;;
64667;SDS011;51077;42.716;23.344;2023-05-02T09:33:51;3.38;;;1.50;;
64667;SDS011;51077;42.716;23.344;2023-05-02T09:36:17;5.10;;;1.53;;
64667;SDS011;51077;42.716;23.344;2023-05-02T09:38:45;3.72;;;1.70;;
64667;SDS011;51077;42.716;23.344;2023-05-02T09:41:12;3.90;;;1.73;;
64667;SDS011;51077;42.716;23.344;2023-05-02T09:43:38;7.27;;;1.50;;
64667;SDS011;51077;42.716;23.344;2023-05-02T09:46:05;3.22;;;1.20;;
64667;SDS011;51077;42.716;23.344;2023-05-02T09:51:17;3.28;;;1.52;;
64667;SDS011;51077;42.716;23.344;2023-05-02T09:53:43;3.40;;;1.48;;
64667;SDS011;51077;42.716;23.344;2023-05-02T09:56:09;3.60;;;1.50;;
64667;SDS011;51077;42.716;23.344;2023-05-02T09:58:35;4.90;;;1.40;;
64667;SDS011;51077;42.716;23.344;2023-05-02T10:01:00;4.00;;;1.30;;
64667;SDS011;51077;42.716;23.344;2023-05-02T10:03:26;3.20;;;1.57;;
64667;SDS011;51077;42.716;23.344;2023-05-02T10:05:53;4.20;;;1.30;;
64667;SDS011;51077;42.716;23.344;2023-05-02T10:08:20;3.95;;;1.75;;
64667;SDS011;51077;42.716;23.344;2023-05-02T10:10:49;2.97;;;1.30;;
64667;SDS011;51077;42.716;23.344;2023-05-02T10:13:25;3.75;;;1.58;;
64667;SDS011;51077;42.716;23.344;2023-05-02T10:16:02;2.72;;;1.40;;
64667;SDS011;51077;42.716;23.344;2023-05-02T10:18:37;4.20;;;1.67;;
64667;SDS011;51077;42.716;23.344;2023-05-02T10:21:16;3.78;;;1.42;;
64667;SDS011;51077;42.716;23.344;2023-05-02T10:23:49;4.60;;;1.30;;
64667;SDS011;51077;42.716;23.344;2023-05-02T10:26:17;3.35;;;1.27;;
64667;SDS011;51077;42.716;23.344;2023-05-02T10:28:43;4.60;;;1.40;;
64667;SDS011;51077;42.716;23.344;2023-05-02T10:31:09;5.00;;;1.40;;
64667;SDS011;51077;42.716;23.344;2023-05-02T10:33:36;2.97;;;1.40;;
64667;SDS011;51077;42.716;23.344;2023-05-02T10:36:02;3.47;;;1.38;;
64667;SDS011;51077;42.716;23.344;2023-05-02T10:38:29;5.00;;;1.30;;
64667;SDS011;51077;42.716;23.344;2023-05-02T10:40:56;3.72;;;1.10;;
64667;SDS011;51077;42.716;23.344;2023-05-02T10:43:30;3.60;;;1.40;;
64667;SDS011;51077;42.716;23.344;2023-05-02T10:45:58;3.20;;;1.60;;
64667;SDS011;51077;42.716;23.344;2023-05-02T10:48:24;2.93;;;1.40;;
64667;SDS011;51077;42.716;23.344;2023-05-02T10:50:51;3.75;;;1.17;;
64667;SDS011;51077;42.716;23.344;2023-05-02T10:56:06;3.70;;;1.50;;
64667;SDS011;51077;42.716;23.344;2023-05-02T10:58:34;3.33;;;1.40;;
64667;SDS011;51077;42.716;23.344;2023-05-02T11:04:00;3.30;;;1.37;;
64667;SDS011;51077;42.716;23.344;2023-05-02T11:06:27;5.97;;;1.50;;
64667;SDS011;51077;42.716;23.344;2023-05-02T11:11:41;3.75;;;1.30;;
64667;SDS011;51077;42.716;23.344;2023-05-02T11:19:21;2.42;;;1.30;;
64667;SDS011;51077;42.716;23.344;2023-05-02T11:21:47;2.30;;;1.20;;
64667;SDS011;51077;42.716;23.344;2023-05-02T11:27:41;2.88;;;1.48;;
64667;SDS011;51077;42.716;23.344;2023-05-02T11:35:17;3.97;;;1.42;;
64667;SDS011;51077;42.716;23.344;2023-05-02T11:40:23;1.90;;;1.10;;
64667;SDS011;51077;42.716;23.344;2023-05-02T11:42:50;2.72;;;1.30;;
64667;SDS011;51077;42.716;23.344;2023-05-02T11:45:16;4.93;;;1.40;;
64667;SDS011;51077;42.716;23.344;2023-05-02T11:47:42;3.85;;;1.63;;
64667;SDS011;51077;42.716;23.344;2023-05-02T11:50:10;2.53;;;1.30;;
64667;SDS011;51077;42.716;23.344;2023-05-02T11:52:36;5.72;;;1.30;;
64667;SDS011;51077;42.716;23.344;2023-05-02T11:55:10;2.75;;;1.38;;
64667;SDS011;51077;42.716;23.344;2023-05-02T11:57:37;6.72;;;1.50;;
64667;SDS011;51077;42.716;23.344;2023-05-02T12:00:03;6.13;;;1.45;;
64667;SDS011;51077;42.716;23.344;2023-05-02T12:05:02;3.25;;;1.45;;
64667;SDS011;51077;42.716;23.344;2023-05-02T12:10:02;3.25;;;1.40;;
64667;SDS011;51077;42.716;23.344;2023-05-02T12:12:28;3.15;;;1.45;;
64667;SDS011;51077;42.716;23.344;2023-05-02T12:14:53;3.23;;;1.77;;
64667;SDS011;51077;42.716;23.344;2023-05-02T12:17:19;3.60;;;1.20;;
64667;SDS011;51077;42.716;23.344;2023-05-02T12:19:45;3.80;;;1.50;;
64667;SDS011;51077;42.716;23.344;2023-05-02T12:22:12;5.13;;;1.40;;
64667;SDS011;51077;42.716;23.344;2023-05-02T12:24:38;3.47;;;1.53;;
64667;SDS011;51077;42.716;23.344;2023-05-02T12:27:08;4.03;;;1.58;;
64667;SDS011;51077;42.716;23.344;2023-05-02T12:29:44;4.00;;;1.58;;
64667;SDS011;51077;42.716;23.344;2023-05-02T12:32:11;4.22;;;1.67;;
64667;SDS011;51077;42.716;23.344;2023-05-02T12:34:38;3.47;;;1.42;;
64667;SDS011;51077;42.716;23.344;2023-05-02T12:37:04;4.60;;;1.83;;
64667;SDS011;51077;42.716;23.344;2023-05-02T12:39:38;6.28;;;1.75;;
64667;SDS011;51077;42.716;23.344;2023-05-02T12:42:08;4.60;;;1.63;;
64667;SDS011;51077;42.716;23.344;2023-05-02T12:44:38;5.50;;;1.52;;
64667;SDS011;51077;42.716;23.344;2023-05-02T12:47:04;2.97;;;1.23;;
64667;SDS011;51077;42.716;23.344;2023-05-02T12:49:30;3.88;;;1.40;;
64667;SDS011;51077;42.716;23.344;2023-05-02T12:51:56;5.60;;;2.17;;
64667;SDS011;51077;42.716;23.344;2023-05-02T12:54:22;3.60;;;1.50;;
64667;SDS011;51077;42.716;23.344;2023-05-02T12:56:48;4.32;;;1.20;;
64667;SDS011;51077;42.716;23.344;2023-05-02T12:59:29;4.97;;;1.50;;
64667;SDS011;51077;42.716;23.344;2023-05-02T13:01:56;4.72;;;1.40;;
64667;SDS011;51077;42.716;23.344;2023-05-02T13:07:04;4.80;;;1.40;;
64667;SDS011;51077;42.716;23.344;2023-05-02T13:09:29;3.60;;;1.20;;
64667;SDS011;51077;42.716;23.344;2023-05-02T13:11:55;5.07;;;1.40;;
64667;SDS011;51077;42.716;23.344;2023-05-02T13:14:21;5.57;;;1.30;;
64667;SDS011;51077;42.716;23.344;2023-05-02T13:16:47;8.50;;;1.70;;
64667;SDS011;51077;42.716;23.344;2023-05-02T13:19:13;4.00;;;1.15;;
64667;SDS011;51077;42.716;23.344;2023-05-02T13:21:39;2.90;;;1.27;;
64667;SDS011;51077;42.716;23.344;2023-05-02T13:24:04;4.43;;;1.30;;
64667;SDS011;51077;42.716;23.344;2023-05-02T13:26:30;3.70;;;1.10;;
64667;SDS011;51077;42.716;23.344;2023-05-02T13:28:56;3.43;;;1.20;;
64667;SDS011;51077;42.716;23.344;2023-05-02T13:31:21;2.50;;;1.33;;
64667;SDS011;51077;42.716;23.344;2023-05-02T13:33:47;4.03;;;1.73;;
64667;SDS011;51077;42.716;23.344;2023-05-02T13:36:13;2.20;;;1.00;;
64667;SDS011;51077;42.716;23.344;2023-05-02T13:38:38;5.43;;;1.97;;
64667;SDS011;51077;42.716;23.344;2023-05-02T13:41:04;5.27;;;1.57;;
64667;SDS011;51077;42.716;23.344;2023-05-02T13:43:29;3.03;;;1.00;;
64667;SDS011;51077;42.716;23.344;2023-05-02T13:45:55;3.50;;;1.50;;
64667;SDS011;51077;42.716;23.344;2023-05-02T13:48:20;4.63;;;1.13;;
64667;SDS011;51077;42.716;23.344;2023-05-02T13:50:46;2.50;;;1.10;;
64667;SDS011;51077;42.716;23.344;2023-05-02T13:53:11;2.93;;;1.33;;
64667;SDS011;51077;42.716;23.344;2023-05-02T13:55:37;4.70;;;1.20;;
64667;SDS011;51077;42.716;23.344;2023-05-02T13:58:02;3.27;;;1.50;;
64667;SDS011;51077;42.716;23.344;2023-05-02T14:00:27;4.77;;;1.20;;
64667;SDS011;51077;42.716;23.344;2023-05-02T14:02:53;2.97;;;1.13;;
64667;SDS011;51077;42.716;23.344;2023-05-02T14:05:19;3.22;;;1.20;;
64667;SDS011;51077;42.716;23.344;2023-05-02T14:07:45;4.17;;;1.00;;
64667;SDS011;51077;42.716;23.344;2023-05-02T14:10:10;6.37;;;1.60;;
64667;SDS011;51077;42.716;23.344;2023-05-02T14:12:36;4.47;;;1.70;;
64667;SDS011;51077;42.716;23.344;2023-05-02T14:15:01;2.13;;;1.10;;
64667;SDS011;51077;42.716;23.344;2023-05-02T14:17:27;3.43;;;1.33;;
64667;SDS011;51077;42.716;23.344;2023-05-02T14:19:52;3.30;;;1.33;;
64667;SDS011;51077;42.716;23.344;2023-05-02T14:22:17;3.70;;;1.20;;
64667;SDS011;51077;42.716;23.344;2023-05-02T14:24:43;3.90;;;1.00;;
64667;SDS011;51077;42.716;23.344;2023-05-02T14:27:08;3.47;;;1.10;;
64667;SDS011;51077;42.716;23.344;2023-05-02T14:29:41;3.50;;;1.58;;
64667;SDS011;51077;42.716;23.344;2023-05-02T14:32:07;3.83;;;1.40;;
64667;SDS011;51077;42.716;23.344;2023-05-02T14:34:33;4.70;;;1.30;;
64667;SDS011;51077;42.716;23.344;2023-05-02T14:36:58;4.13;;;0.87;;
64667;SDS011;51077;42.716;23.344;2023-05-02T14:39:23;4.37;;;1.30;;
64667;SDS011;51077;42.716;23.344;2023-05-02T14:41:49;10.07;;;1.53;;
64667;SDS011;51077;42.716;23.344;2023-05-02T14:44:15;2.53;;;1.00;;
64667;SDS011;51077;42.716;23.344;2023-05-02T14:46:40;2.20;;;1.10;;
64667;SDS011;51077;42.716;23.344;2023-05-02T14:49:06;2.43;;;1.20;;
64667;SDS011;51077;42.716;23.344;2023-05-02T14:51:31;3.03;;;1.00;;
64667;SDS011;51077;42.716;23.344;2023-05-02T14:53:56;3.47;;;0.90;;
64667;SDS011;51077;42.716;23.344;2023-05-02T14:56:22;3.50;;;1.10;;
64667;SDS011;51077;42.716;23.344;2023-05-02T14:58:48;3.22;;;1.23;;
64667;SDS011;51077;42.716;23.344;2023-05-02T15:01:14;3.93;;;1.17;;
64667;SDS011;51077;42.716;23.344;2023-05-02T15:03:41;4.63;;;1.40;;
64667;SDS011;51077;42.716;23.344;2023-05-02T15:06:06;2.73;;;1.10;;
64667;SDS011;51077;42.716;23.344;2023-05-02T15:08:31;4.60;;;1.30;;
64667;SDS011;51077;42.716;23.344;2023-05-02T15:10:57;3.60;;;1.20;;
64667;SDS011;51077;42.716;23.344;2023-05-02T15:13:22;2.03;;;1.00;;
64667;SDS011;51077;42.716;23.344;2023-05-02T15:15:48;5.03;;;1.27;;
64667;SDS011;51077;42.716;23.344;2023-05-02T15:18:13;3.30;;;1.20;;
64667;SDS011;51077;42.716;23.344;2023-05-02T15:20:38;3.30;;;1.20;;
64667;SDS011;51077;42.716;23.344;2023-05-02T15:23:04;3.08;;;1.45;;
64667;SDS011;51077;42.716;23.344;2023-05-02T15:25:30;2.80;;;1.30;;
64667;SDS011;51077;42.716;23.344;2023-05-02T15:27:55;3.77;;;1.50;;
64667;SDS011;51077;42.716;23.344;2023-05-02T15:30:21;4.60;;;1.70;;
64667;SDS011;51077;42.716;23.344;2023-05-02T15:32:46;3.10;;;1.23;;
64667;SDS011;51077;42.716;23.344;2023-05-02T15:35:11;4.10;;;1.50;;
64667;SDS011;51077;42.716;23.344;2023-05-02T15:37:37;3.20;;;1.50;;
64667;SDS011;51077;42.716;23.344;2023-05-02T15:40:02;3.40;;;1.50;;